sensor_id;sensor_type;location;lat;lon;timestamp;pressure;altitude;pressure_sealevel;temperature;humidity
8699;BME280;4386;51.236;6.742;2023-02-13T00:00:35;103279.34;;;11.32;72.43
8699;BME280;4386;51.236;6.742;2023-02-13T00:01:49;103282.81;;;11.32;72.59
8699;BME280;4386;51.236;6.742;2023-02-13T00:03:13;103289.09;;;11.31;72.23
8699;BME280;4386;51.236;6.742;2023-02-13T00:04:35;103284.69;;;11.30;72.20
8699;BME280;4386;51.236;6.742;2023-02-13T00:05:58;103278.59;;;11.28;72.38
8699;BME280;4386;51.236;6.742;2023-02-13T00:07:19;103278.59;;;11.28;72.26
8699;BME280;4386;51.236;6.742;2023-02-13T00:08:42;103278.63;;;11.27;72.27
8699;BME280;4386;51.236;6.742;2023-02-13T00:10:06;103275.97;;;11.27;72.07
8699;BME280;4386;51.236;6.742;2023-02-13T00:11:28;103279.53;;;11.26;72.53
8699;BME280;4386;51.236;6.742;2023-02-13T00:12:50;103277.03;;;11.23;72.33
8699;BME280;4386;51.236;6.742;2023-02-13T00:14:12;103269.19;;;11.20;72.34
8699;BME280;4386;51.236;6.742;2023-02-13T00:15:34;103279.78;;;11.20;72.35
8699;BME280;4386;51.236;6.742;2023-02-13T00:16:57;103268.38;;;11.18;72.46
8699;BME280;4386;51.236;6.742;2023-02-13T00:18:20;103270.19;;;11.17;72.48
8699;BME280;4386;51.236;6.742;2023-02-13T00:19:42;103271.97;;;11.17;72.49
8699;BME280;4386;51.236;6.742;2023-02-13T00:21:06;103268.44;;;11.16;72.38
8699;BME280;4386;51.236;6.742;2023-02-13T00:22:29;103264.00;;;11.17;72.40
8699;BME280;4386;51.236;6.742;2023-02-13T00:27:03;103259.69;;;11.14;72.36
8699;BME280;4386;51.236;6.742;2023-02-13T00:28:26;103259.72;;;11.13;72.17
8699;BME280;4386;51.236;6.742;2023-02-13T00:29:49;103257.06;;;11.13;72.42
8699;BME280;4386;51.236;6.742;2023-02-13T00:31:13;103255.38;;;11.12;72.48
8699;BME280;4386;51.236;6.742;2023-02-13T00:32:37;103248.31;;;11.11;72.32
8699;BME280;4386;51.236;6.742;2023-02-13T00:34:00;103251.88;;;11.10;72.63
8699;BME280;4386;51.236;6.742;2023-02-13T00:35:22;103243.00;;;11.11;72.46
8699;BME280;4386;51.236;6.742;2023-02-13T00:36:45;103253.63;;;11.11;72.57
8699;BME280;4386;51.236;6.742;2023-02-13T00:38:07;103255.41;;;11.10;72.69
8699;BME280;4386;51.236;6.742;2023-02-13T00:39:30;103251.88;;;11.10;72.42
8699;BME280;4386;51.236;6.742;2023-02-13T00:40:53;103254.63;;;11.08;72.52
8699;BME280;4386;51.236;6.742;2023-02-13T00:42:15;103248.44;;;11.08;72.68
8699;BME280;4386;51.236;6.742;2023-02-13T00:43:38;103250.19;;;11.09;72.55
8699;BME280;4386;51.236;6.742;2023-02-13T00:45:01;103246.59;;;11.10;72.67
8699;BME280;4386;51.236;6.742;2023-02-13T00:46:23;103251.06;;;11.09;72.65
8699;BME280;4386;51.236;6.742;2023-02-13T00:47:47;103254.53;;;11.10;72.63
8699;BME280;4386;51.236;6.742;2023-02-13T00:49:10;103247.53;;;11.09;72.71
8699;BME280;4386;51.236;6.742;2023-02-13T00:50:31;103243.13;;;11.08;72.67
8699;BME280;4386;51.236;6.742;2023-02-13T00:51:54;103240.47;;;11.08;72.60
8699;BME280;4386;51.236;6.742;2023-02-13T00:53:15;103248.44;;;11.08;72.68
8699;BME280;4386;51.236;6.742;2023-02-13T00:54:38;103243.13;;;11.08;72.69
8699;BME280;4386;51.236;6.742;2023-02-13T00:56:01;103240.53;;;11.06;72.55
8699;BME280;4386;51.236;6.742;2023-02-13T00:57:24;103240.59;;;11.05;72.83
8699;BME280;4386;51.236;6.742;2023-02-13T00:58:45;103244.13;;;11.05;72.71
8699;BME280;4386;51.236;6.742;2023-02-13T01:00:09;103243.25;;;11.05;72.59
8699;BME280;4386;51.236;6.742;2023-02-13T01:01:31;103240.66;;;11.03;72.85
8699;BME280;4386;51.236;6.742;2023-02-13T01:02:54;103243.38;;;11.02;72.76
8699;BME280;4386;51.236;6.742;2023-02-13T01:04:17;103243.38;;;11.02;72.89
8699;BME280;4386;51.236;6.742;2023-02-13T01:05:39;103246.03;;;11.02;72.87
8699;BME280;4386;51.236;6.742;2023-02-13T01:07:02;103245.16;;;11.01;73.03
8699;BME280;4386;51.236;6.742;2023-02-13T01:08:24;103252.25;;;11.01;72.86
8699;BME280;4386;51.236;6.742;2023-02-13T01:09:48;103245.22;;;10.99;72.79
8699;BME280;4386;51.236;6.742;2023-02-13T01:11:11;103239.97;;;10.98;73.04
8699;BME280;4386;51.236;6.742;2023-02-13T01:12:32;103242.69;;;10.96;72.91
8699;BME280;4386;51.236;6.742;2023-02-13T01:13:55;103245.34;;;10.96;72.71
8699;BME280;4386;51.236;6.742;2023-02-13T01:15:17;103245.34;;;10.96;72.98
8699;BME280;4386;51.236;6.742;2023-02-13T01:16:39;103251.59;;;10.95;73.05
8699;BME280;4386;51.236;6.742;2023-02-13T01:18:03;103243.66;;;10.94;72.85
8699;BME280;4386;51.236;6.742;2023-02-13T01:19:26;103240.22;;;10.92;72.82
8699;BME280;4386;51.236;6.742;2023-02-13T01:20:56;103244.66;;;10.91;72.90
8699;BME280;4386;51.236;6.742;2023-02-13T01:22:18;103238.56;;;10.89;73.50
8699;BME280;4386;51.236;6.742;2023-02-13T01:23:41;103236.81;;;10.88;73.06
8699;BME280;4386;51.236;6.742;2023-02-13T01:25:04;103240.47;;;10.86;73.26
8699;BME280;4386;51.236;6.742;2023-02-13T01:26:27;103229.91;;;10.84;73.21
8699;BME280;4386;51.236;6.742;2023-02-13T01:27:48;103238.78;;;10.83;73.26
8699;BME280;4386;51.236;6.742;2023-02-13T01:29:11;103233.56;;;10.82;73.17
8699;BME280;4386;51.236;6.742;2023-02-13T01:30:33;103242.41;;;10.81;73.25
8699;BME280;4386;51.236;6.742;2023-02-13T01:31:56;103233.59;;;10.80;73.50
8699;BME280;4386;51.236;6.742;2023-02-13T01:33:20;103234.53;;;10.79;73.37
8699;BME280;4386;51.236;6.742;2023-02-13T01:34:42;103230.16;;;10.78;73.32
8699;BME280;4386;51.236;6.742;2023-02-13T01:36:06;103233.72;;;10.77;73.45
8699;BME280;4386;51.236;6.742;2023-02-13T01:37:29;103237.31;;;10.76;73.37
8699;BME280;4386;51.236;6.742;2023-02-13T01:38:52;103228.53;;;10.74;73.73
8699;BME280;4386;51.236;6.742;2023-02-13T01:40:15;103231.19;;;10.74;73.62
8699;BME280;4386;51.236;6.742;2023-02-13T01:41:37;103229.53;;;10.72;73.57
8699;BME280;4386;51.236;6.742;2023-02-13T01:46:14;103232.34;;;10.67;73.42
8699;BME280;4386;51.236;6.742;2023-02-13T01:47:40;103222.66;;;10.66;73.31
8699;BME280;4386;51.236;6.742;2023-02-13T01:49:21;103235.09;;;10.64;73.41
8699;BME280;4386;51.236;6.742;2023-02-13T01:50:48;103230.75;;;10.63;73.36
8699;BME280;4386;51.236;6.742;2023-02-13T01:52:13;103221.97;;;10.61;73.52
8699;BME280;4386;51.236;6.742;2023-02-13T01:53:38;103223.81;;;10.59;73.69
8699;BME280;4386;51.236;6.742;2023-02-13T01:55:02;103220.34;;;10.57;73.86
8699;BME280;4386;51.236;6.742;2023-02-13T01:56:27;103223.94;;;10.56;73.84
8699;BME280;4386;51.236;6.742;2023-02-13T02:01:01;103225.75;;;10.54;73.74
8699;BME280;4386;51.236;6.742;2023-02-13T02:02:25;103224.06;;;10.53;73.69
8699;BME280;4386;51.236;6.742;2023-02-13T02:03:50;103230.19;;;10.54;73.77
8699;BME280;4386;51.236;6.742;2023-02-13T02:05:15;103224.97;;;10.52;73.85
8699;BME280;4386;51.236;6.742;2023-02-13T02:06:42;103220.47;;;10.54;73.89
8699;BME280;4386;51.236;6.742;2023-02-13T02:08:08;103224.84;;;10.55;74.00
8699;BME280;4386;51.236;6.742;2023-02-13T02:09:33;103230.16;;;10.55;73.85
8699;BME280;4386;51.236;6.742;2023-02-13T02:11:01;103227.47;;;10.57;73.84
8699;BME280;4386;51.236;6.742;2023-02-13T02:15:33;103227.47;;;10.57;73.86
8699;BME280;4386;51.236;6.742;2023-02-13T02:16:56;103222.19;;;10.55;73.80
8699;BME280;4386;51.236;6.742;2023-02-13T02:18:21;103229.34;;;10.53;74.02
8699;BME280;4386;51.236;6.742;2023-02-13T02:19:48;103222.19;;;10.55;74.04
8699;BME280;4386;51.236;6.742;2023-02-13T02:21:42;103223.94;;;10.56;73.88
8699;BME280;4386;51.236;6.742;2023-02-13T02:23:22;103227.47;;;10.57;74.02
8699;BME280;4386;51.236;6.742;2023-02-13T02:25:20;103228.28;;;10.57;73.80
8699;BME280;4386;51.236;6.742;2023-02-13T02:27:13;103226.59;;;10.56;74.00
8699;BME280;4386;51.236;6.742;2023-02-13T02:29:10;103223.13;;;10.54;73.97
8699;BME280;4386;51.236;6.742;2023-02-13T02:32:48;103229.34;;;10.53;74.04
8699;BME280;4386;51.236;6.742;2023-02-13T02:34:23;103229.34;;;10.53;74.10
8699;BME280;4386;51.236;6.742;2023-02-13T02:35:58;103225.75;;;10.54;74.08
8699;BME280;4386;51.236;6.742;2023-02-13T02:37:33;103235.50;;;10.54;74.16
8699;BME280;4386;51.236;6.742;2023-02-13T02:39:07;103228.50;;;10.53;74.07
8699;BME280;4386;51.236;6.742;2023-02-13T02:40:36;103222.31;;;10.52;74.35
8699;BME280;4386;51.236;6.742;2023-02-13T02:42:09;103228.50;;;10.53;74.19
8699;BME280;4386;51.236;6.742;2023-02-13T02:43:47;103227.63;;;10.52;74.15
8699;BME280;4386;51.236;6.742;2023-02-13T02:45:18;103223.19;;;10.53;74.04
8699;BME280;4386;51.236;6.742;2023-02-13T02:49:50;103217.13;;;10.49;74.13
8699;BME280;4386;51.236;6.742;2023-02-13T02:51:24;103227.75;;;10.49;74.10
8699;BME280;4386;51.236;6.742;2023-02-13T02:53:04;103213.66;;;10.47;73.92
8699;BME280;4386;51.236;6.742;2023-02-13T02:54:32;103211.94;;;10.46;74.25
8699;BME280;4386;51.236;6.742;2023-02-13T02:56:19;103222.56;;;10.46;74.38
8699;BME280;4386;51.236;6.742;2023-02-13T02:57:47;103220.81;;;10.45;74.40
8699;BME280;4386;51.236;6.742;2023-02-13T02:59:28;103222.56;;;10.46;74.46
8699;BME280;4386;51.236;6.742;2023-02-13T03:01:11;103218.97;;;10.47;74.40
8699;BME280;4386;51.236;6.742;2023-02-13T03:02:52;103222.47;;;10.48;74.11
8699;BME280;4386;51.236;6.742;2023-02-13T03:04:38;103216.31;;;10.47;74.31
8699;BME280;4386;51.236;6.742;2023-02-13T03:06:24;103227.78;;;10.48;74.37
8699;BME280;4386;51.236;6.742;2023-02-13T03:07:47;103218.03;;;10.48;74.32
8699;BME280;4386;51.236;6.742;2023-02-13T03:09:14;103226.00;;;10.48;74.41
8699;BME280;4386;51.236;6.742;2023-02-13T03:10:57;103228.59;;;10.50;74.35
8699;BME280;4386;51.236;6.742;2023-02-13T03:12:39;103225.00;;;10.51;74.27
8699;BME280;4386;51.236;6.742;2023-02-13T03:14:23;103229.41;;;10.52;74.41
8699;BME280;4386;51.236;6.742;2023-02-13T03:15:49;103222.38;;;10.51;74.39
8699;BME280;4386;51.236;6.742;2023-02-13T03:17:30;103219.78;;;10.49;74.54
8699;BME280;4386;51.236;6.742;2023-02-13T03:19:12;103225.97;;;10.50;74.64
8699;BME280;4386;51.236;6.742;2023-02-13T03:21:03;103224.25;;;10.47;74.42
8699;BME280;4386;51.236;6.742;2023-02-13T03:23:11;103229.56;;;10.47;74.45
8699;BME280;4386;51.236;6.742;2023-02-13T03:27:30;103219.94;;;10.44;74.39
8699;BME280;4386;51.236;6.742;2023-02-13T03:29:26;103233.28;;;10.43;74.54
8699;BME280;4386;51.236;6.742;2023-02-13T03:31:14;103222.78;;;10.40;74.54
8699;BME280;4386;51.236;6.742;2023-02-13T03:32:45;103219.25;;;10.39;74.64
8699;BME280;4386;51.236;6.742;2023-02-13T03:34:15;103217.47;;;10.40;74.78
8699;BME280;4386;51.236;6.742;2023-02-13T03:35:44;103217.47;;;10.40;74.72
8699;BME280;4386;51.236;6.742;2023-02-13T03:37:30;103212.19;;;10.40;74.69
8699;BME280;4386;51.236;6.742;2023-02-13T03:39:20;103218.44;;;10.37;74.80
8699;BME280;4386;51.236;6.742;2023-02-13T03:40:48;103220.28;;;10.35;74.80
8699;BME280;4386;51.236;6.742;2023-02-13T03:42:31;103218.56;;;10.34;74.65
8699;BME280;4386;51.236;6.742;2023-02-13T03:44:08;103219.53;;;10.32;74.89
8699;BME280;4386;51.236;6.742;2023-02-13T03:45:36;103220.56;;;10.28;74.95
8699;BME280;4386;51.236;6.742;2023-02-13T03:47:15;103220.69;;;10.25;75.17
8699;BME280;4386;51.236;6.742;2023-02-13T03:48:39;103218.03;;;10.25;75.02
8699;BME280;4386;51.236;6.742;2023-02-13T03:50:21;103226.06;;;10.23;75.37
8699;BME280;4386;51.236;6.742;2023-02-13T03:51:48;103222.53;;;10.23;74.96
8699;BME280;4386;51.236;6.742;2023-02-13T03:53:13;103226.97;;;10.22;74.91
8699;BME280;4386;51.236;6.742;2023-02-13T03:54:42;103223.44;;;10.22;75.20
8699;BME280;4386;51.236;6.742;2023-02-13T03:56:25;103229.63;;;10.22;75.15
8699;BME280;4386;51.236;6.742;2023-02-13T03:58:09;103223.56;;;10.19;75.13
8699;BME280;4386;51.236;6.742;2023-02-13T03:59:51;103226.22;;;10.19;75.14
8699;BME280;4386;51.236;6.742;2023-02-13T04:01:16;103224.47;;;10.18;75.24
8699;BME280;4386;51.236;6.742;2023-02-13T04:02:50;103228.84;;;10.19;75.25
8699;BME280;4386;51.236;6.742;2023-02-13T04:04:22;103228.84;;;10.19;75.25
8699;BME280;4386;51.236;6.742;2023-02-13T04:05:48;103231.50;;;10.19;75.20
8699;BME280;4386;51.236;6.742;2023-02-13T04:07:14;103231.56;;;10.17;75.34
8699;BME280;4386;51.236;6.742;2023-02-13T04:08:49;103235.13;;;10.16;75.23
8699;BME280;4386;51.236;6.742;2023-02-13T04:10:14;103228.97;;;10.16;75.31
8699;BME280;4386;51.236;6.742;2023-02-13T04:11:41;103239.63;;;10.14;75.36
8699;BME280;4386;51.236;6.742;2023-02-13T04:13:09;103233.41;;;10.15;75.54
8699;BME280;4386;51.236;6.742;2023-02-13T04:14:37;103229.06;;;10.13;75.37
8699;BME280;4386;51.236;6.742;2023-02-13T04:16:06;103231.75;;;10.11;75.39
8699;BME280;4386;51.236;6.742;2023-02-13T04:17:34;103241.50;;;10.11;75.62
8699;BME280;4386;51.236;6.742;2023-02-13T04:18:58;103238.03;;;10.09;75.67
8699;BME280;4386;51.236;6.742;2023-02-13T04:20:25;103233.75;;;10.05;75.48
8699;BME280;4386;51.236;6.742;2023-02-13T04:21:54;103235.59;;;10.03;75.75
8699;BME280;4386;51.236;6.742;2023-02-13T04:23:18;103232.16;;;10.01;75.80
8699;BME280;4386;51.236;6.742;2023-02-13T04:24:40;103231.31;;;9.99;75.79
8699;BME280;4386;51.236;6.742;2023-02-13T04:26:05;103233.16;;;9.97;75.84
8699;BME280;4386;51.236;6.742;2023-02-13T04:27:29;103232.28;;;9.96;75.70
8699;BME280;4386;51.236;6.742;2023-02-13T04:28:51;103229.72;;;9.94;75.96
8699;BME280;4386;51.236;6.742;2023-02-13T04:30:13;103233.28;;;9.93;75.99
8699;BME280;4386;51.236;6.742;2023-02-13T04:36:11;103230.13;;;9.82;75.86
8699;BME280;4386;51.236;6.742;2023-02-13T04:37:33;103236.41;;;9.80;75.87
8699;BME280;4386;51.236;6.742;2023-02-13T04:38:55;103232.06;;;9.77;76.01
8699;BME280;4386;51.236;6.742;2023-02-13T04:40:17;103238.28;;;9.76;75.86
8699;BME280;4386;51.236;6.742;2023-02-13T04:41:41;103233.06;;;9.75;76.27
8699;BME280;4386;51.236;6.742;2023-02-13T04:43:03;103231.25;;;9.75;75.69
8699;BME280;4386;51.236;6.742;2023-02-13T04:44:25;103235.75;;;9.73;76.19
8699;BME280;4386;51.236;6.742;2023-02-13T04:45:47;103235.84;;;9.70;76.26
8699;BME280;4386;51.236;6.742;2023-02-13T04:47:09;103234.09;;;9.69;76.22
8699;BME280;4386;51.236;6.742;2023-02-13T04:48:32;103243.03;;;9.67;76.26
8699;BME280;4386;51.236;6.742;2023-02-13T04:49:54;103232.47;;;9.65;76.58
8699;BME280;4386;51.236;6.742;2023-02-13T04:51:16;103232.56;;;9.62;76.63
8699;BME280;4386;51.236;6.742;2023-02-13T04:56:53;103229.34;;;9.54;76.37
8699;BME280;4386;51.236;6.742;2023-02-13T04:57:56;103226.72;;;9.53;76.70
8699;BME280;4386;51.236;6.742;2023-02-13T04:58:58;103224.16;;;9.51;76.87
8699;BME280;4386;51.236;6.742;2023-02-13T05:00:00;103222.41;;;9.50;76.84
8699;BME280;4386;51.236;6.742;2023-02-13T05:01:02;103218.88;;;9.50;77.07
8699;BME280;4386;51.236;6.742;2023-02-13T05:02:22;103224.25;;;9.48;76.82
8699;BME280;4386;51.236;6.742;2023-02-13T05:03:33;103225.16;;;9.47;77.06
8699;BME280;4386;51.236;6.742;2023-02-13T05:04:36;103218.19;;;9.45;77.20
8699;BME280;4386;51.236;6.742;2023-02-13T05:05:43;103222.63;;;9.44;77.29
8699;BME280;4386;51.236;6.742;2023-02-13T05:06:46;103218.22;;;9.43;77.12
8699;BME280;4386;51.236;6.742;2023-02-13T05:07:47;103223.53;;;9.43;77.30
8699;BME280;4386;51.236;6.742;2023-02-13T05:08:50;103222.66;;;9.42;77.38
8699;BME280;4386;51.236;6.742;2023-02-13T05:09:51;103226.16;;;9.43;77.35
8699;BME280;4386;51.236;6.742;2023-02-13T05:10:54;103225.28;;;9.42;77.47
8699;BME280;4386;51.236;6.742;2023-02-13T05:11:57;103222.72;;;9.41;77.64
8699;BME280;4386;51.236;6.742;2023-02-13T05:13:00;103217.44;;;9.41;77.43
8699;BME280;4386;51.236;6.742;2023-02-13T05:14:02;103225.38;;;9.41;77.63
8699;BME280;4386;51.236;6.742;2023-02-13T05:15:05;103220.97;;;9.40;77.48
8699;BME280;4386;51.236;6.742;2023-02-13T05:16:07;103222.81;;;9.38;77.50
8699;BME280;4386;51.236;6.742;2023-02-13T05:17:10;103221.09;;;9.37;77.59
8699;BME280;4386;51.236;6.742;2023-02-13T05:18:11;103220.22;;;9.36;77.73
8699;BME280;4386;51.236;6.742;2023-02-13T05:19:21;103222.00;;;9.36;77.67
8699;BME280;4386;51.236;6.742;2023-02-13T05:20:24;103222.94;;;9.35;77.87
8699;BME280;4386;51.236;6.742;2023-02-13T05:21:26;103215.88;;;9.34;77.68
8699;BME280;4386;51.236;6.742;2023-02-13T05:22:43;103221.19;;;9.34;77.69
8699;BME280;4386;51.236;6.742;2023-02-13T05:24:03;103222.06;;;9.34;77.65
8699;BME280;4386;51.236;6.742;2023-02-13T05:25:07;103224.75;;;9.33;77.95
8699;BME280;4386;51.236;6.742;2023-02-13T05:26:08;103225.69;;;9.32;77.88
8699;BME280;4386;51.236;6.742;2023-02-13T05:27:12;103216.00;;;9.31;78.01
8699;BME280;4386;51.236;6.742;2023-02-13T05:28:14;103223.94;;;9.31;77.94
8699;BME280;4386;51.236;6.742;2023-02-13T05:29:34;103226.56;;;9.31;78.09
8699;BME280;4386;51.236;6.742;2023-02-13T05:30:36;103220.47;;;9.29;78.18
8699;BME280;4386;51.236;6.742;2023-02-13T05:31:39;103220.47;;;9.29;78.17
8699;BME280;4386;51.236;6.742;2023-02-13T05:32:43;103220.47;;;9.29;78.10
8699;BME280;4386;51.236;6.742;2023-02-13T05:33:55;103217.88;;;9.27;78.04
8699;BME280;4386;51.236;6.742;2023-02-13T05:35:00;103217.94;;;9.26;78.18
8699;BME280;4386;51.236;6.742;2023-02-13T05:36:05;103223.22;;;9.26;77.96
8699;BME280;4386;51.236;6.742;2023-02-13T05:37:07;103225.91;;;9.24;78.24
8699;BME280;4386;51.236;6.742;2023-02-13T05:38:10;103214.47;;;9.24;78.36
8699;BME280;4386;51.236;6.742;2023-02-13T05:39:11;103218.94;;;9.22;78.38
8699;BME280;4386;51.236;6.742;2023-02-13T05:40:15;103226.81;;;9.23;78.46
8699;BME280;4386;51.236;6.742;2023-02-13T05:41:17;103221.59;;;9.22;78.37
8699;BME280;4386;51.236;6.742;2023-02-13T05:42:21;103219.84;;;9.21;78.45
8699;BME280;4386;51.236;6.742;2023-02-13T05:43:22;103225.16;;;9.21;78.38
8699;BME280;4386;51.236;6.742;2023-02-13T05:44:25;103225.16;;;9.21;78.28
8699;BME280;4386;51.236;6.742;2023-02-13T05:45:37;103221.69;;;9.19;78.33
8699;BME280;4386;51.236;6.742;2023-02-13T05:46:46;103216.41;;;9.19;78.50
8699;BME280;4386;51.236;6.742;2023-02-13T05:47:49;103220.84;;;9.17;78.56
8699;BME280;4386;51.236;6.742;2023-02-13T05:48:51;103220.84;;;9.17;78.58
8699;BME280;4386;51.236;6.742;2023-02-13T05:49:53;103221.78;;;9.16;78.44
8699;BME280;4386;51.236;6.742;2023-02-13T05:50:55;103220.91;;;9.15;78.59
8699;BME280;4386;51.236;6.742;2023-02-13T05:51:58;103223.56;;;9.15;78.54
8699;BME280;4386;51.236;6.742;2023-02-13T05:53:00;103226.22;;;9.15;78.72
8699;BME280;4386;51.236;6.742;2023-02-13T05:54:02;103214.75;;;9.15;78.70
8699;BME280;4386;51.236;6.742;2023-02-13T05:55:06;103221.81;;;9.14;78.89
8699;BME280;4386;51.236;6.742;2023-02-13T05:56:08;103224.53;;;9.13;78.77
8699;BME280;4386;51.236;6.742;2023-02-13T05:57:10;103232.47;;;9.13;78.86
8699;BME280;4386;51.236;6.742;2023-02-13T05:58:13;103219.28;;;9.11;78.82
8699;BME280;4386;51.236;6.742;2023-02-13T05:59:16;103219.28;;;9.11;78.72
8699;BME280;4386;51.236;6.742;2023-02-13T06:00:20;103218.41;;;9.11;78.78
8699;BME280;4386;51.236;6.742;2023-02-13T06:01:32;103213.13;;;9.11;78.87
8699;BME280;4386;51.236;6.742;2023-02-13T06:02:38;103214.97;;;9.09;78.85
8699;BME280;4386;51.236;6.742;2023-02-13T06:03:48;103211.38;;;9.10;78.81
8699;BME280;4386;51.236;6.742;2023-02-13T06:04:49;103218.50;;;9.08;79.11
8699;BME280;4386;51.236;6.742;2023-02-13T06:05:53;103218.50;;;9.08;78.93
8699;BME280;4386;51.236;6.742;2023-02-13T06:06:55;103212.41;;;9.06;78.89
8699;BME280;4386;51.236;6.742;2023-02-13T06:07:58;103203.63;;;9.05;79.10
8699;BME280;4386;51.236;6.742;2023-02-13T06:08:59;103215.06;;;9.06;79.04
8699;BME280;4386;51.236;6.742;2023-02-13T06:10:02;103210.69;;;9.05;79.07
8699;BME280;4386;51.236;6.742;2023-02-13T06:11:04;103206.28;;;9.04;79.06
8699;BME280;4386;51.236;6.742;2023-02-13T06:12:07;103205.41;;;9.03;79.14
8699;BME280;4386;51.236;6.742;2023-02-13T06:13:08;103209.88;;;9.03;79.13
8699;BME280;4386;51.236;6.742;2023-02-13T06:14:12;103205.50;;;9.02;78.83
8699;BME280;4386;51.236;6.742;2023-02-13T06:15:15;103215.19;;;9.01;79.11
8699;BME280;4386;51.236;6.742;2023-02-13T06:16:17;103210.78;;;9.02;79.18
8699;BME280;4386;51.236;6.742;2023-02-13T06:17:19;103207.25;;;9.01;79.16
8699;BME280;4386;51.236;6.742;2023-02-13T06:18:30;103202.84;;;9.02;78.98
8699;BME280;4386;51.236;6.742;2023-02-13T06:19:33;103203.75;;;9.01;79.12
8699;BME280;4386;51.236;6.742;2023-02-13T06:20:35;103209.03;;;9.01;79.48
8699;BME280;4386;51.236;6.742;2023-02-13T06:21:38;103203.81;;;8.99;78.83
8699;BME280;4386;51.236;6.742;2023-02-13T06:22:40;103207.34;;;8.98;79.09
8699;BME280;4386;51.236;6.742;2023-02-13T06:23:42;103206.50;;;8.98;79.23
8699;BME280;4386;51.236;6.742;2023-02-13T06:24:44;103206.50;;;8.98;79.16
8699;BME280;4386;51.236;6.742;2023-02-13T06:25:46;103205.69;;;8.96;79.16
8699;BME280;4386;51.236;6.742;2023-02-13T06:26:48;103203.91;;;8.96;79.05
8699;BME280;4386;51.236;6.742;2023-02-13T06:27:51;103205.69;;;8.96;79.15
8699;BME280;4386;51.236;6.742;2023-02-13T06:28:53;103210.03;;;8.97;79.19
8699;BME280;4386;51.236;6.742;2023-02-13T06:29:56;103207.47;;;8.95;79.21
8699;BME280;4386;51.236;6.742;2023-02-13T06:30:59;103214.50;;;8.96;79.20
8699;BME280;4386;51.236;6.742;2023-02-13T06:32:02;103195.09;;;8.96;79.15
8699;BME280;4386;51.236;6.742;2023-02-13T06:33:05;103206.59;;;8.95;79.26
8699;BME280;4386;51.236;6.742;2023-02-13T06:34:07;103209.22;;;8.95;79.18
8699;BME280;4386;51.236;6.742;2023-02-13T06:35:19;103213.66;;;8.94;79.33
8699;BME280;4386;51.236;6.742;2023-02-13T06:36:21;103222.47;;;8.95;79.19
8699;BME280;4386;51.236;6.742;2023-02-13T06:37:24;103210.13;;;8.94;79.50
8699;BME280;4386;51.236;6.742;2023-02-13T06:38:26;103215.44;;;8.94;79.27
8699;BME280;4386;51.236;6.742;2023-02-13T06:39:28;103211.94;;;8.93;79.44
8699;BME280;4386;51.236;6.742;2023-02-13T06:40:30;103208.44;;;8.93;79.47
8699;BME280;4386;51.236;6.742;2023-02-13T06:41:32;103208.44;;;8.93;79.39
8699;BME280;4386;51.236;6.742;2023-02-13T06:42:34;103205.78;;;8.93;79.46
8699;BME280;4386;51.236;6.742;2023-02-13T06:43:37;103210.13;;;8.94;79.64
8699;BME280;4386;51.236;6.742;2023-02-13T06:44:41;103213.72;;;8.93;79.61
8699;BME280;4386;51.236;6.742;2023-02-13T06:45:45;103217.25;;;8.92;79.50
8699;BME280;4386;51.236;6.742;2023-02-13T06:46:48;103214.63;;;8.92;79.61
8699;BME280;4386;51.236;6.742;2023-02-13T06:47:49;103212.88;;;8.90;79.53
8699;BME280;4386;51.236;6.742;2023-02-13T06:48:52;103213.81;;;8.89;79.47
8699;BME280;4386;51.236;6.742;2023-02-13T06:49:55;103210.22;;;8.90;79.47
8699;BME280;4386;51.236;6.742;2023-02-13T06:50:57;103214.63;;;8.92;79.46
8699;BME280;4386;51.236;6.742;2023-02-13T06:52:00;103211.09;;;8.91;79.49
8699;BME280;4386;51.236;6.742;2023-02-13T06:53:02;103204.03;;;8.92;79.49
8699;BME280;4386;51.236;6.742;2023-02-13T06:54:04;103204.94;;;8.90;79.25
8699;BME280;4386;51.236;6.742;2023-02-13T06:55:06;103204.94;;;8.90;79.49
8699;BME280;4386;51.236;6.742;2023-02-13T06:56:09;103206.69;;;8.92;79.30
8699;BME280;4386;51.236;6.742;2023-02-13T06:57:22;103204.94;;;8.90;79.41
8699;BME280;4386;51.236;6.742;2023-02-13T06:58:24;103204.00;;;8.93;79.49
8699;BME280;4386;51.236;6.742;2023-02-13T06:59:27;103207.56;;;8.92;79.67
8699;BME280;4386;51.236;6.742;2023-02-13T07:00:28;103202.28;;;8.90;79.60
8699;BME280;4386;51.236;6.742;2023-02-13T07:01:32;103204.03;;;8.92;79.38
8699;BME280;4386;51.236;6.742;2023-02-13T07:02:36;103209.44;;;8.88;79.44
8699;BME280;4386;51.236;6.742;2023-02-13T07:03:38;103209.34;;;8.90;79.46
8699;BME280;4386;51.236;6.742;2023-02-13T07:04:40;103201.41;;;8.92;79.60
8699;BME280;4386;51.236;6.742;2023-02-13T07:05:43;103209.34;;;8.90;79.33
8699;BME280;4386;51.236;6.742;2023-02-13T07:06:55;103210.22;;;8.90;79.47
8699;BME280;4386;51.236;6.742;2023-02-13T07:07:58;103207.66;;;8.89;79.64
8699;BME280;4386;51.236;6.742;2023-02-13T07:09:00;103203.22;;;8.89;79.35
8699;BME280;4386;51.236;6.742;2023-02-13T07:10:04;103208.47;;;8.91;79.62
8699;BME280;4386;51.236;6.742;2023-02-13T07:11:06;103216.47;;;8.89;79.30
8699;BME280;4386;51.236;6.742;2023-02-13T07:12:14;103207.66;;;8.89;79.37
8699;BME280;4386;51.236;6.742;2023-02-13T07:13:16;103212.06;;;8.88;79.50
8699;BME280;4386;51.236;6.742;2023-02-13T07:14:19;103209.44;;;8.88;79.42
8699;BME280;4386;51.236;6.742;2023-02-13T07:15:20;103212.94;;;8.89;79.43
8699;BME280;4386;51.236;6.742;2023-02-13T07:16:23;103208.56;;;8.88;79.69
8699;BME280;4386;51.236;6.742;2023-02-13T07:17:27;103211.16;;;8.89;79.65
8699;BME280;4386;51.236;6.742;2023-02-13T07:18:29;103201.50;;;8.88;79.44
8699;BME280;4386;51.236;6.742;2023-02-13T07:19:31;103204.94;;;8.90;79.21
8699;BME280;4386;51.236;6.742;2023-02-13T07:20:33;103210.22;;;8.90;79.61
8699;BME280;4386;51.236;6.742;2023-02-13T07:21:35;103222.56;;;8.92;79.49
8699;BME280;4386;51.236;6.742;2023-02-13T07:22:38;103211.97;;;8.92;79.37
8699;BME280;4386;51.236;6.742;2023-02-13T07:23:41;103207.59;;;8.90;79.53
8699;BME280;4386;51.236;6.742;2023-02-13T07:24:43;103210.22;;;8.90;79.50
8699;BME280;4386;51.236;6.742;2023-02-13T07:25:50;103215.53;;;8.90;79.46
8699;BME280;4386;51.236;6.742;2023-02-13T07:27:03;103222.56;;;8.92;79.38
8699;BME280;4386;51.236;6.742;2023-02-13T07:28:05;103217.25;;;8.92;79.69
8699;BME280;4386;51.236;6.742;2023-02-13T07:29:08;103217.25;;;8.92;79.65